Time;durP1;ratioP1;P1;durP2;ratioP2;P2;SDS_P1;SDS_P2;PMS_P1;PMS_P2;Temp;Humidity;BMP_temperature;BMP_pressure;BME280_temperature;BME280_humidity;BME280_pressure;Samples;Min_cycle;Max_cycle;Signal;HPM_P1;HPM_P2
2023/01/12 00:01:37;;;;;;;56.00;30.70;;;;;;;2.13;100.00;98096.84;106613;1251;61224;-78
2023/01/12 00:04:04;;;;;;;52.70;27.20;;;;;;;2.16;100.00;98098.80;106626;1254;72930;-77
2023/01/12 00:06:33;;;;;;;53.00;29.00;;;;;;;2.11;100.00;98101.98;106605;1254;61355;-77
2023/01/12 00:09:02;;;;;;;;;;;;;;;2.11;100.00;98106.99;106666;1254;61115;-77
2023/01/12 00:11:29;;;;;;;49.50;25.90;;;;;;;2.08;100.00;98107.98;106592;1254;74079;-77
2023/01/12 00:13:55;;;;;;;47.30;26.60;;;;;;;2.12;100.00;98112.24;106633;1255;61787;-79
2023/01/12 00:16:36;;;;;;;46.10;24.10;;;;;;;2.11;100.00;98111.80;106482;1253;61431;-77
2023/01/12 00:19:14;;;;;;;65.00;34.20;;;;;;;2.16;100.00;98117.26;106647;1254;61331;-79
2023/01/12 00:24:25;;;;;;;55.60;30.40;;;;;;;2.21;100.00;98132.30;106662;1256;73861;-77
2023/01/12 00:26:52;;;;;;;48.90;28.80;;;;;;;2.23;100.00;98136.44;106544;1254;71195;-79
2023/01/12 00:29:19;;;;;;;44.70;27.60;;;;;;;2.28;100.00;98137.48;106615;1253;73722;-79
2023/01/12 00:31:45;;;;;;;46.50;26.20;;;;;;;2.35;100.00;98138.31;106556;1254;61260;-77
2023/01/12 00:34:13;;;;;;;43.10;22.20;;;;;;;2.40;100.00;98137.89;106552;1253;61189;-77
2023/01/12 00:36:40;;;;;;;38.60;23.80;;;;;;;2.46;100.00;98138.25;106635;1255;73323;-79
2023/01/12 00:39:06;;;;;;;43.60;25.90;;;;;;;2.47;100.00;98138.81;106533;1254;61218;-79
2023/01/12 00:47:04;;;;;;;39.50;21.50;;;;;;;2.60;100.00;98141.06;106645;1254;60209;-79
2023/01/12 00:49:31;;;;;;;39.10;20.30;;;;;;;2.60;100.00;98144.38;106626;1254;75583;-77
2023/01/12 00:51:57;;;;;;;34.20;19.40;;;;;;;2.59;100.00;98141.85;106603;1254;61244;-79
2023/01/12 00:54:24;;;;;;;38.70;19.30;;;;;;;2.60;100.00;98147.96;106538;1253;62038;-79
2023/01/12 00:56:50;;;;;;;31.90;18.10;;;;;;;2.62;100.00;98150.56;106565;1254;60123;-77
2023/01/12 00:59:16;;;;;;;30.40;17.40;;;;;;;2.66;100.00;98151.38;106572;1254;61396;-77
2023/01/12 01:01:43;;;;;;;29.20;16.60;;;;;;;2.72;100.00;98153.55;106553;1254;61139;-79
2023/01/12 01:04:09;;;;;;;27.80;16.40;;;;;;;2.79;100.00;98156.47;106510;1253;61071;-77
2023/01/12 01:06:37;;;;;;;25.70;14.60;;;;;;;2.85;100.00;98150.85;106604;1255;61479;-77
2023/01/12 01:09:04;;;;;;;29.00;16.30;;;;;;;2.90;100.00;98151.92;106743;1254;61202;-77
2023/01/12 01:11:31;;;;;;;33.40;18.60;;;;;;;2.94;100.00;98152.91;106608;1254;60915;-79
2023/01/12 01:13:58;;;;;;;32.80;17.70;;;;;;;3.01;100.00;98157.17;106685;1253;74467;-79
2023/01/12 01:16:24;;;;;;;31.10;18.50;;;;;;;3.06;100.00;98155.52;106664;1254;70846;-79
2023/01/12 01:18:51;;;;;;;29.60;18.00;;;;;;;3.11;100.00;98154.69;106614;1252;59904;-79
2023/01/12 01:21:20;;;;;;;30.70;17.30;;;;;;;3.19;100.00;98159.76;106620;1253;60699;-79
2023/01/12 01:23:46;;;;;;;;;;;;;;;3.30;100.00;98162.39;106564;1254;61666;-80
2023/01/12 01:26:15;;;;;;;7.10;4.00;;;;;;;3.47;100.00;98162.40;106675;1254;60674;-79
2023/01/12 01:28:41;;;;;;;8.70;4.30;;;;;;;3.71;100.00;98161.31;106666;1254;71232;-77
2023/01/12 01:31:16;;;;;;;8.10;4.30;;;;;;;3.90;100.00;98160.20;106631;1252;71422;-77
2023/01/12 01:33:42;;;;;;;7.60;4.00;;;;;;;4.02;100.00;98161.83;106756;1253;61190;-79
2023/01/12 01:36:09;;;;;;;8.10;4.60;;;;;;;4.14;100.00;98157.84;106790;1253;60913;-79
2023/01/12 01:38:36;;;;;;;7.80;4.30;;;;;;;4.21;100.00;98160.71;106663;1254;74278;-80
2023/01/12 01:41:03;;;;;;;8.30;4.30;;;;;;;4.25;100.00;98160.29;106696;1254;71413;-80
2023/01/12 01:43:51;;;;;;;6.20;3.50;;;;;;;4.28;100.00;98152.42;106616;1255;71391;-79
2023/01/12 01:46:34;;;;;;;9.10;3.50;;;;;;;4.30;100.00;98145.70;106632;1253;60723;-79
2023/01/12 01:49:09;;;;;;;5.30;3.90;;;;;;;4.34;100.00;98135.84;106598;1254;61918;-77
2023/01/12 01:51:35;;;;;;;8.60;3.90;;;;;;;4.36;100.00;98135.30;106642;1253;72814;-77
2023/01/12 01:54:02;;;;;;;7.70;3.80;;;;;;;4.37;100.00;98134.80;106548;1253;59902;-79
2023/01/12 01:56:30;;;;;;;6.10;3.50;;;;;;;4.37;100.00;98132.92;106480;1254;59987;-77
2023/01/12 01:59:03;;;;;;;6.40;3.10;;;;;;;4.38;100.00;98133.20;106478;1253;61346;-79
2023/01/12 02:01:29;;;;;;;5.30;3.40;;;;;;;4.38;100.00;98135.48;106583;1257;60165;-77
2023/01/12 02:03:56;;;;;;;4.70;2.80;;;;;;;4.38;100.00;98134.61;106515;1253;59766;-79
2023/01/12 02:06:24;;;;;;;5.70;2.90;;;;;;;4.38;100.00;98140.79;106626;1254;61215;-79
2023/01/12 02:08:56;;;;;;;7.20;4.20;;;;;;;4.38;100.00;98139.77;106578;1257;72717;-79
2023/01/12 02:17:33;;;;;;;7.10;3.40;;;;;;;4.35;100.00;98151.36;106636;1253;74956;-79
2023/01/12 02:20:15;;;;;;;7.10;2.90;;;;;;;4.34;100.00;98148.40;106643;1252;71056;-79
2023/01/12 02:23:03;;;;;;;10.30;4.90;;;;;;;4.34;100.00;98147.39;106650;1254;72541;-77
2023/01/12 02:25:47;;;;;;;8.10;3.80;;;;;;;4.34;100.00;98154.10;106671;1252;61106;-77
2023/01/12 02:28:37;;;;;;;7.40;3.90;;;;;;;4.33;100.00;98156.44;106637;1252;61989;-77
2023/01/12 02:31:22;;;;;;;12.50;5.10;;;;;;;4.32;100.00;98160.02;106571;1253;73452;-79
2023/01/12 02:33:58;;;;;;;8.20;3.20;;;;;;;4.31;100.00;98165.73;106619;1253;71008;-79
2023/01/12 02:36:31;;;;;;;8.30;5.00;;;;;;;4.32;100.00;98162.86;106643;1255;72487;-79
2023/01/12 02:39:18;;;;;;;7.70;4.00;;;;;;;4.32;100.00;98156.79;106537;1253;61224;-77
2023/01/12 02:45:12;;;;;;;9.80;6.00;;;;;;;4.34;100.00;98160.96;106683;1252;75481;-77
2023/01/12 02:47:57;;;;;;;8.60;4.10;;;;;;;4.35;100.00;98162.92;106635;1254;71041;-77
2023/01/12 02:50:34;;;;;;;11.70;4.60;;;;;;;4.35;100.00;98166.02;106623;1254;72513;-79
2023/01/12 02:53:03;;;;;;;6.70;4.00;;;;;;;4.35;100.00;98172.84;106621;1254;60717;-79
2023/01/12 02:55:30;;;;;;;9.80;4.50;;;;;;;4.34;100.00;98177.77;106509;1252;59863;-79
2023/01/12 02:57:56;;;;;;;7.00;3.70;;;;;;;4.37;100.00;98176.05;106630;1252;73329;-77
2023/01/12 03:00:23;;;;;;;7.40;3.50;;;;;;;4.35;100.00;98178.85;106673;1254;61106;-77
2023/01/12 03:02:49;;;;;;;6.40;3.20;;;;;;;4.36;100.00;98175.59;106530;1254;61595;-77
2023/01/12 03:05:16;;;;;;;7.00;3.80;;;;;;;4.33;100.00;98176.46;106688;1254;61284;-77
2023/01/12 03:07:54;;;;;;;6.90;4.50;;;;;;;4.34;100.00;98176.90;106681;1254;59921;-79
2023/01/12 03:10:55;;;;;;;7.00;3.10;;;;;;;4.33;100.00;98179.56;106630;1254;74541;-77
2023/01/12 03:13:21;;;;;;;4.50;2.90;;;;;;;4.34;100.00;98185.27;106564;1254;70315;-79
2023/01/12 03:15:49;;;;;;;6.30;3.00;;;;;;;4.35;100.00;98184.31;106514;1254;59935;-79
2023/01/12 03:18:43;;;;;;;5.10;3.10;;;;;;;4.35;100.00;98181.91;106654;1252;62006;-78
2023/01/12 03:21:13;;;;;;;6.00;3.70;;;;;;;4.36;100.00;98179.26;106632;1253;60699;-79
2023/01/12 03:23:46;;;;;;;9.10;3.50;;;;;;;4.36;100.00;98173.52;106626;1253;75628;-79
2023/01/12 03:26:12;;;;;;;5.50;3.60;;;;;;;4.37;100.00;98170.75;106629;1253;68949;-79
2023/01/12 03:28:42;;;;;;;5.00;3.20;;;;;;;4.36;100.00;98171.38;106475;1254;60771;-77
2023/01/12 03:31:09;;;;;;;6.10;3.20;;;;;;;4.36;100.00;98171.02;106632;1252;59924;-79
2023/01/12 03:33:40;;;;;;;5.50;3.10;;;;;;;4.37;100.00;98172.64;106758;1254;61528;-77
2023/01/12 03:36:15;;;;;;;11.80;8.00;;;;;;;4.40;100.00;98175.48;106676;1253;74503;-77
2023/01/12 03:38:51;;;;;;;11.10;6.50;;;;;;;4.39;100.00;98176.16;106632;1254;70940;-77
2023/01/12 03:41:26;;;;;;;43.70;33.60;;;;;;;4.36;100.00;98173.15;106650;1253;71462;-79
2023/01/12 03:43:54;;;;;;;32.20;20.80;;;;;;;4.31;100.00;98172.46;106752;1254;59795;-77
2023/01/12 03:46:26;;;;;;;15.20;9.90;;;;;;;4.26;100.00;98178.08;106706;1253;59763;-77
2023/01/12 03:48:55;;;;;;;15.50;7.70;;;;;;;4.22;100.00;98180.73;106885;1253;73467;-79
2023/01/12 03:51:41;;;;;;;12.20;7.60;;;;;;;4.18;100.00;98182.85;106646;1254;71091;-79
2023/01/12 03:54:08;;;;;;;24.70;17.80;;;;;;;4.15;100.00;98188.02;106625;1253;71478;-77
2023/01/12 03:56:35;;;;;;;31.30;24.40;;;;;;;4.10;100.00;98186.21;106614;1252;59791;-77
2023/01/12 03:59:02;;;;;;;24.00;16.00;;;;;;;4.07;100.00;98187.46;106560;1253;63061;-80
2023/01/12 04:01:29;;;;;;;20.90;12.60;;;;;;;4.07;100.00;98185.73;106465;1253;74543;-79
2023/01/12 04:03:56;;;;;;;20.80;11.20;;;;;;;4.08;100.00;98183.57;106619;1254;71812;-78
2023/01/12 04:06:22;;;;;;;17.40;10.40;;;;;;;4.08;100.00;98187.10;106639;1254;59857;-77
2023/01/12 04:08:48;;;;;;;26.90;15.00;;;;;;;4.07;100.00;98191.21;106594;1254;59859;-79
2023/01/12 04:14:00;;;;;;;28.10;13.20;;;;;;;4.04;100.00;98197.17;106566;1254;74506;-76
2023/01/12 04:16:26;;;;;;;24.70;12.80;;;;;;;3.99;100.00;98191.52;106585;1255;61216;-76
2023/01/12 04:18:53;;;;;;;25.50;14.80;;;;;;;3.99;100.00;98193.02;106548;1253;61605;-76
2023/01/12 04:24:05;;;;;;;21.10;12.40;;;;;;;4.02;100.00;98201.30;106654;1254;60238;-78
2023/01/12 04:26:31;;;;;;;13.20;8.70;;;;;;;4.05;100.00;98199.11;106620;1253;61330;-77
2023/01/12 04:28:58;;;;;;;9.00;5.10;;;;;;;4.10;100.00;98197.08;106606;1254;61996;-78
2023/01/12 04:31:24;;;;;;;25.00;15.90;;;;;;;4.15;100.00;98199.13;106631;1254;61641;-77
2023/01/12 04:33:50;;;;;;;40.00;25.70;;;;;;;4.16;100.00;98196.37;106630;1253;60193;-78
2023/01/12 04:36:17;;;;;;;18.50;11.40;;;;;;;4.19;100.00;98200.87;106625;1254;61365;-78
2023/01/12 04:38:43;;;;;;;18.50;10.80;;;;;;;4.19;100.00;98201.20;106585;1253;61304;-79
2023/01/12 04:41:09;;;;;;;14.80;8.80;;;;;;;4.19;100.00;98201.81;106606;1254;61995;-77
2023/01/12 04:43:36;;;;;;;35.20;21.80;;;;;;;4.18;100.00;98199.73;106610;1254;60817;-78
2023/01/12 04:46:06;;;;;;;34.10;26.40;;;;;;;4.19;100.00;98197.95;106662;1256;59856;-78
2023/01/12 04:48:32;;;;;;;26.30;18.20;;;;;;;4.18;100.00;98204.25;106544;1253;60103;-78
2023/01/12 04:50:59;;;;;;;22.10;13.30;;;;;;;4.20;100.00;98203.49;106579;1254;61237;-78
2023/01/12 04:53:26;;;;;;;16.20;9.80;;;;;;;4.20;100.00;98207.83;106458;1254;69969;-77
2023/01/12 04:55:52;;;;;;;22.40;14.40;;;;;;;4.20;100.00;98206.76;106535;1257;72540;-78
2023/01/12 04:58:19;;;;;;;26.30;17.20;;;;;;;4.18;100.00;98204.14;106526;1254;59883;-78
2023/01/12 05:00:45;;;;;;;29.90;19.50;;;;;;;4.19;100.00;98200.71;107056;1254;59819;-77
2023/01/12 05:03:12;;;;;;;19.20;12.10;;;;;;;4.20;100.00;98201.02;106561;1254;61199;-76
2023/01/12 05:05:39;;;;;;;25.30;14.30;;;;;;;4.21;100.00;98202.48;106597;1254;69919;-78
2023/01/12 05:10:56;;;;;;;20.10;12.10;;;;;;;4.20;100.00;98200.86;106494;1254;61313;-76
2023/01/12 05:13:24;;;;;;;17.40;10.60;;;;;;;4.21;100.00;98200.39;106780;1254;60237;-79
2023/01/12 05:15:51;;;;;;;16.80;11.20;;;;;;;4.20;100.00;98198.83;107133;1254;74927;-77
2023/01/12 05:18:17;;;;;;;19.60;11.60;;;;;;;4.21;100.00;98205.39;106590;1254;60062;-78
2023/01/12 05:20:44;;;;;;;22.50;12.30;;;;;;;4.21;100.00;98206.61;106507;1254;61237;-77
2023/01/12 05:23:10;;;;;;;34.20;25.30;;;;;;;4.21;100.00;98208.88;106532;1254;62062;-79
2023/01/12 05:25:36;;;;;;;39.20;27.30;;;;;;;4.23;100.00;98208.80;106490;1254;62057;-77
2023/01/12 05:28:03;;;;;;;29.90;20.30;;;;;;;4.24;100.00;98211.73;106570;1256;60407;-77
2023/01/12 05:30:29;;;;;;;21.40;11.90;;;;;;;4.27;100.00;98210.87;106500;1253;61359;-77
2023/01/12 05:32:56;;;;;;;13.50;8.30;;;;;;;4.31;100.00;98211.23;106457;1254;61996;-79
2023/01/12 05:35:22;;;;;;;11.60;6.50;;;;;;;4.34;100.00;98207.15;106581;1253;60687;-77
2023/01/12 05:37:49;;;;;;;7.40;4.60;;;;;;;4.40;100.00;98207.46;106577;1254;60855;-77
2023/01/12 05:40:15;;;;;;;4.00;2.80;;;;;;;4.48;100.00;98207.54;106562;1254;61313;-77
2023/01/12 05:45:27;;;;;;;5.20;2.90;;;;;;;4.62;100.00;98210.46;106574;1254;72629;-77
2023/01/12 05:47:57;;;;;;;4.80;2.40;;;;;;;4.67;100.00;98208.88;106548;1254;60679;-77
2023/01/12 05:50:24;;;;;;;2.90;2.20;;;;;;;4.71;100.00;98203.94;106830;1254;59745;-77
2023/01/12 05:52:51;;;;;;;3.40;2.20;;;;;;;4.76;100.00;98205.30;106635;1252;61221;-79
2023/01/12 05:55:17;;;;;;;4.40;2.70;;;;;;;4.78;100.00;98204.15;106620;1253;70811;-79
2023/01/12 05:57:43;;;;;;;7.40;2.90;;;;;;;4.82;100.00;98203.40;106534;1254;61231;-79
2023/01/12 06:00:11;;;;;;;6.20;2.90;;;;;;;4.84;100.00;98206.39;106681;1254;61359;-79
2023/01/12 06:02:37;;;;;;;5.00;2.80;;;;;;;4.85;100.00;98210.54;106611;1254;61944;-79
2023/01/12 06:05:07;;;;;;;3.60;2.70;;;;;;;4.88;100.00;98212.06;106785;1252;62847;-77
2023/01/12 06:07:34;;;;;;;4.30;2.90;;;;;;;4.90;100.00;98210.16;106724;1255;69830;-79
2023/01/12 06:10:00;;;;;;;3.60;2.60;;;;;;;4.93;100.00;98215.90;106652;1254;72560;-79
2023/01/12 06:15:12;;;;;;;6.00;4.30;;;;;;;4.97;100.00;98217.90;106598;1252;60797;-77
2023/01/12 06:17:38;;;;;;;3.20;2.10;;;;;;;4.97;100.00;98212.85;106636;1254;74625;-76
2023/01/12 06:20:06;;;;;;;3.20;2.10;;;;;;;4.96;100.00;98218.09;106684;1253;60168;-79
2023/01/12 06:22:32;;;;;;;5.10;2.70;;;;;;;4.97;100.00;98221.95;106707;1254;71418;-80
2023/01/12 06:24:59;;;;;;;5.20;2.60;;;;;;;4.95;100.00;98222.35;106766;1254;61327;-79
2023/01/12 06:27:25;;;;;;;6.80;2.00;;;;;;;4.93;100.00;98221.02;106676;1253;61733;-77
2023/01/12 06:29:52;;;;;;;5.90;4.10;;;;;;;4.93;100.00;98221.27;106985;1254;59842;-77
2023/01/12 06:32:18;;;;;;;4.50;2.60;;;;;;;4.93;100.00;98223.70;106889;1254;61070;-79
2023/01/12 06:34:45;;;;;;;3.70;2.30;;;;;;;4.91;100.00;98222.81;107898;1254;59680;-79
2023/01/12 06:37:11;;;;;;;4.60;3.30;;;;;;;4.92;100.00;98232.08;108575;1253;60890;-79
2023/01/12 06:39:38;;;;;;;3.00;2.50;;;;;;;4.96;100.00;98240.05;107595;1253;61215;-79
2023/01/12 06:44:50;;;;;;;4.60;2.00;;;;;;;4.97;100.00;98239.01;107366;1254;70927;-77
2023/01/12 06:47:16;;;;;;;5.20;3.10;;;;;;;4.97;100.00;98241.52;107864;1252;61215;-79
2023/01/12 06:49:42;;;;;;;6.70;3.60;;;;;;;4.99;100.00;98245.53;106972;1254;61336;-79
2023/01/12 06:52:10;;;;;;;29.00;25.40;;;;;;;4.99;100.00;98251.11;106733;1254;61285;-77
2023/01/12 06:54:36;;;;;;;30.70;24.30;;;;;;;4.97;100.00;98262.02;107439;1254;73529;-79
2023/01/12 06:57:03;;;;;;;10.20;7.10;;;;;;;4.94;100.00;98265.88;108236;1251;61876;-77
2023/01/12 06:59:29;;;;;;;17.90;8.70;;;;;;;4.90;100.00;98268.44;107693;1255;72569;-79
2023/01/12 07:01:56;;;;;;;14.70;10.40;;;;;;;4.85;100.00;98273.54;106691;1253;196171;-79
2023/01/12 07:04:22;;;;;;;25.10;18.50;;;;;;;4.77;100.00;98280.73;107610;1254;62129;-77
2023/01/12 07:06:52;;;;;;;32.00;22.00;;;;;;;4.75;100.00;98284.59;107730;1254;73446;-79
2023/01/12 07:09:19;;;;;;;32.00;19.30;;;;;;;4.73;100.00;98288.92;107386;1252;69246;-79
2023/01/12 07:11:45;;;;;;;42.70;20.60;;;;;;;4.71;100.00;98288.67;107336;1254;61665;-77
2023/01/12 07:14:13;;;;;;;61.90;36.40;;;;;;;4.65;100.00;98290.44;107341;1253;62090;-77
2023/01/12 07:16:41;;;;;;;45.00;25.50;;;;;;;4.59;100.00;98292.98;108489;1254;61992;-77
2023/01/12 07:19:08;;;;;;;31.30;18.40;;;;;;;4.52;100.00;98291.30;107803;1254;74541;-79
2023/01/12 07:21:34;;;;;;;21.20;13.10;;;;;;;4.49;100.00;98291.01;107387;1253;60608;-77
2023/01/12 07:24:01;;;;;;;20.50;13.80;;;;;;;4.47;100.00;98290.80;107166;1254;62103;-77
2023/01/12 07:26:28;;;;;;;26.00;15.50;;;;;;;4.48;100.00;98290.50;108966;1255;59397;-77
2023/01/12 07:28:54;;;;;;;28.00;19.20;;;;;;;4.44;100.00;98285.89;108025;1253;60223;-79
2023/01/12 07:31:21;;;;;;;22.00;13.50;;;;;;;4.44;100.00;98283.23;108028;1254;73452;-77
2023/01/12 07:33:51;;;;;;;28.70;16.20;;;;;;;4.44;100.00;98287.14;108299;1252;60848;-79
2023/01/12 07:36:18;;;;;;;22.10;12.30;;;;;;;4.43;100.00;98288.13;109158;1254;72568;-79
2023/01/12 07:38:44;;;;;;;20.80;13.50;;;;;;;4.41;100.00;98288.02;109330;1253;58996;-79
2023/01/12 07:42:22;;;;;;;22.30;15.20;;;;;;;4.37;100.00;98287.14;109413;1252;59345;-78
2023/01/12 07:43:57;;;;;;;34.10;21.80;;;;;;;4.37;100.00;98290.45;107420;1253;74917;-77
2023/01/12 07:46:24;;;;;;;21.40;14.20;;;;;;;4.37;100.00;98286.66;108999;1252;60213;-77
2023/01/12 07:48:50;;;;;;;21.90;14.70;;;;;;;4.39;100.00;98283.23;107533;1253;70462;-79
2023/01/12 07:51:17;;;;;;;25.20;12.30;;;;;;;4.41;100.00;98281.70;106853;1254;61237;-77
2023/01/12 07:53:43;;;;;;;20.90;13.40;;;;;;;4.43;100.00;98282.92;106817;1253;60815;-77
2023/01/12 07:56:12;;;;;;;23.50;15.10;;;;;;;4.42;100.00;98281.39;107304;1253;61663;-77
2023/01/12 07:58:38;;;;;;;36.60;16.20;;;;;;;4.40;100.00;98283.45;107803;1254;71115;-77
2023/01/12 08:01:05;;;;;;;27.60;15.20;;;;;;;4.41;100.00;98289.59;106742;1257;61299;-79
2023/01/12 08:03:32;;;;;;;24.00;14.00;;;;;;;4.41;100.00;98287.34;106897;1255;59759;-77
2023/01/12 08:05:59;;;;;;;22.40;14.10;;;;;;;4.46;100.00;98291.54;107731;1253;60844;-77
2023/01/12 08:08:25;;;;;;;38.60;23.00;;;;;;;4.50;100.00;98294.67;107867;1253;73462;-77
2023/01/12 08:10:51;;;;;;;28.20;18.30;;;;;;;4.53;100.00;98299.33;106772;1254;61169;-76
2023/01/12 08:13:21;;;;;;;19.60;12.60;;;;;;;4.57;100.00;98300.10;106856;1253;61867;-77
2023/01/12 08:15:48;;;;;;;39.80;19.20;;;;;;;4.58;100.00;98298.20;107144;1253;61221;-77
2023/01/12 08:18:18;;;;;;;30.60;17.30;;;;;;;4.61;100.00;98300.61;107505;1253;61895;-77
2023/01/12 08:20:45;;;;;;;32.00;19.20;;;;;;;4.62;100.00;98301.40;106970;1253;73732;-79
2023/01/12 08:23:15;;;;;;;37.40;22.30;;;;;;;4.65;100.00;98304.63;106667;1253;71034;-77
2023/01/12 08:25:43;;;;;;;33.10;19.50;;;;;;;4.64;100.00;98301.94;107650;1253;71445;-77
2023/01/12 08:28:15;;;;;;;27.70;16.80;;;;;;;4.58;100.00;98297.33;107683;1256;61431;-79
2023/01/12 08:30:41;;;;;;;102.90;47.60;;;;;;;4.55;100.00;98296.24;108726;1253;59112;-80
2023/01/12 08:33:07;;;;;;;302.40;139.20;;;;;;;4.53;100.00;98298.30;106782;1253;61893;-79
2023/01/12 08:35:34;;;;;;;234.30;120.10;;;;;;;4.55;100.00;98303.34;108145;1253;60193;-79
2023/01/12 08:38:00;;;;;;;92.30;48.70;;;;;;;4.59;100.00;98308.46;106868;1253;61775;-79
2023/01/12 08:41:31;;;;;;;60.90;38.10;;;;;;;4.60;100.00;98308.52;107570;1253;59815;-79
2023/01/12 08:44:00;;;;;;;89.30;46.80;;;;;;;4.61;100.00;98311.40;106613;1253;61994;-78
2023/01/12 08:46:06;;;;;;;186.40;79.40;;;;;;;4.61;100.00;98319.90;107787;1256;74548;-79
2023/01/12 08:48:34;;;;;;;160.50;75.60;;;;;;;4.63;100.00;98321.71;106950;1256;70412;-79
2023/01/12 08:51:01;;;;;;;79.90;40.60;;;;;;;4.62;100.00;98319.94;106540;1254;71462;-78
2023/01/12 08:53:27;;;;;;;46.90;28.10;;;;;;;4.64;100.00;98319.16;106729;1254;59819;-79
2023/01/12 08:55:54;;;;;;;59.70;34.40;;;;;;;4.61;100.00;98316.19;107050;1254;61906;-77
2023/01/12 08:58:20;;;;;;;58.70;36.30;;;;;;;4.63;100.00;98323.10;106711;1254;60798;-79
2023/01/12 09:00:47;;;;;;;41.40;25.00;;;;;;;4.67;100.00;98329.25;106577;1252;61304;-77
2023/01/12 09:03:13;;;;;;;45.90;27.60;;;;;;;4.72;100.00;98329.77;106690;1253;61391;-77
2023/01/12 09:05:40;;;;;;;23.50;15.90;;;;;;;4.77;100.00;98327.99;106707;1254;62152;-77
2023/01/12 09:08:06;;;;;;;47.10;23.00;;;;;;;4.85;100.00;98332.98;106630;1254;59877;-77
2023/01/12 09:10:32;;;;;;;22.30;12.60;;;;;;;4.93;100.00;98336.05;106635;1254;59858;-79
2023/01/12 09:12:59;;;;;;;31.90;21.40;;;;;;;5.02;100.00;98333.95;106574;1254;61552;-79
2023/01/12 09:15:26;;;;;;;31.20;19.60;;;;;;;5.10;100.00;98329.07;106541;1253;61208;-77
2023/01/12 09:17:53;;;;;;;19.70;12.80;;;;;;;5.16;100.00;98332.15;106596;1255;61327;-77
2023/01/12 09:20:19;;;;;;;37.30;23.70;;;;;;;5.21;100.00;98323.81;106601;1254;61247;-79
2023/01/12 09:22:46;;;;;;;39.40;25.90;;;;;;;5.22;100.00;98315.40;106612;1253;74151;-79
2023/01/12 09:25:13;;;;;;;34.70;20.40;;;;;;;5.27;100.00;98310.17;106610;1254;69789;-77
2023/01/12 09:27:39;;;;;;;38.90;26.00;;;;;;;5.30;100.00;98307.67;106631;1253;72554;-79
2023/01/12 09:30:07;;;;;;;19.70;11.70;;;;;;;5.34;100.00;98310.48;107461;1254;60713;-77
2023/01/12 09:32:33;;;;;;;47.20;35.70;;;;;;;5.37;100.00;98308.71;106732;1254;61327;-77
2023/01/12 09:35:00;;;;;;;76.30;44.50;;;;;;;5.42;100.00;98303.76;106715;1253;74540;-79
2023/01/12 09:37:27;;;;;;;69.90;37.90;;;;;;;5.46;100.00;98295.39;106529;1253;59829;-77
2023/01/12 09:39:53;;;;;;;87.90;37.80;;;;;;;5.51;100.00;98288.95;106746;1254;72561;-77
2023/01/12 09:48:04;;;;;;;33.90;19.80;;;;;;;5.81;100.00;98275.07;106629;1254;74303;-77
2023/01/12 09:50:33;;;;;;;19.50;9.80;;;;;;;5.91;100.00;98268.86;106720;1255;71203;-77
2023/01/12 09:53:00;;;;;;;18.50;11.40;;;;;;;6.04;100.00;98261.93;106529;1254;72973;-79
2023/01/12 09:55:35;;;;;;;37.00;21.50;;;;;;;6.15;100.00;98261.25;106632;1256;60657;-79
2023/01/12 09:58:05;;;;;;;23.40;19.20;;;;;;;6.21;100.00;98253.26;106647;1254;61202;-79
2023/01/12 10:00:31;;;;;;;22.30;14.00;;;;;;;6.27;100.00;98240.13;106666;1253;74535;-77
2023/01/12 10:03:10;;;;;;;13.70;9.90;;;;;;;6.38;100.00;98239.76;106606;1256;61426;-77
2023/01/12 10:05:37;;;;;;;15.20;8.90;;;;;;;6.50;100.00;98233.18;106564;1256;71381;-79
2023/01/12 10:08:04;;;;;;;10.80;7.10;;;;;;;6.64;100.00;98234.02;106575;1256;59833;-79
2023/01/12 10:10:30;;;;;;;18.00;8.50;;;;;;;6.76;100.00;98231.92;106563;1254;60798;-79
2023/01/12 10:12:59;;;;;;;13.10;7.40;;;;;;;6.87;100.00;98229.15;106649;1254;61996;-77
2023/01/12 10:15:45;;;;;;;11.80;7.50;;;;;;;7.01;100.00;98229.81;106514;1253;69759;-79
2023/01/12 10:18:22;;;;;;;11.00;6.40;;;;;;;7.10;100.00;98220.37;106493;1256;72209;-77
2023/01/12 10:20:48;;;;;;;15.20;8.00;;;;;;;7.13;100.00;98221.75;106619;1255;59857;-77
2023/01/12 10:23:17;;;;;;;15.60;7.50;;;;;;;7.21;100.00;98227.55;106529;1254;59818;-79
2023/01/12 10:26:00;;;;;;;9.60;5.80;;;;;;;7.28;100.00;98226.55;106810;1256;73435;-79
2023/01/12 10:28:28;;;;;;;12.40;6.10;;;;;;;7.33;99.94;98219.80;106560;1254;69942;-77
2023/01/12 10:30:55;;;;;;;6.50;4.20;;;;;;;7.32;98.34;98227.02;106600;1256;72643;-77
2023/01/12 10:33:22;;;;;;;8.40;4.10;;;;;;;7.36;99.89;98225.06;106800;1256;59899;-79
2023/01/12 10:35:57;;;;;;;7.50;4.60;;;;;;;7.38;99.76;98223.64;106603;1254;60677;-79
2023/01/12 10:38:26;;;;;;;7.30;3.30;;;;;;;7.43;99.33;98217.76;106715;1254;74527;-79
2023/01/12 10:41:03;;;;;;;7.50;3.20;;;;;;;7.49;99.02;98215.71;106777;1254;70976;-79
2023/01/12 10:43:33;;;;;;;5.70;3.20;;;;;;;7.57;97.82;98216.55;106869;1254;71403;-77
2023/01/12 10:46:09;;;;;;;9.00;3.20;;;;;;;7.62;98.09;98218.23;106888;1257;61328;-77
2023/01/12 10:48:38;;;;;;;5.50;3.00;;;;;;;7.67;97.84;98223.10;106922;1256;61219;-77
2023/01/12 10:51:07;;;;;;;5.50;2.20;;;;;;;7.71;98.20;98221.86;107312;1254;74626;-77
2023/01/12 10:53:45;;;;;;;8.50;2.70;;;;;;;7.76;95.88;98225.13;106800;1253;69740;-79
2023/01/12 10:56:35;;;;;;;4.70;1.70;;;;;;;7.81;94.56;98218.28;106923;1257;71440;-79
2023/01/12 10:59:11;;;;;;;4.60;2.60;;;;;;;7.85;95.05;98221.00;106571;1255;61217;-78
2023/01/12 11:01:41;;;;;;;5.40;2.50;;;;;;;7.94;95.32;98214.39;106518;1254;60215;-79
2023/01/12 11:04:15;;;;;;;8.30;2.30;;;;;;;8.02;93.18;98216.01;106629;1257;74633;-79
2023/01/12 11:06:43;;;;;;;6.70;2.10;;;;;;;8.05;92.60;98213.52;106651;1255;71013;-79
2023/01/12 11:09:17;;;;;;;4.00;2.70;;;;;;;8.08;91.59;98213.89;106689;1253;72553;-80
2023/01/12 11:11:43;;;;;;;5.80;2.50;;;;;;;8.10;90.51;98209.86;106630;1257;62058;-79
2023/01/12 11:14:19;;;;;;;6.60;2.70;;;;;;;8.09;91.04;98211.27;106677;1255;61240;-77
2023/01/12 11:16:49;;;;;;;6.60;3.10;;;;;;;8.11;92.86;98202.80;106515;1259;73618;-79
2023/01/12 11:19:16;;;;;;;5.00;2.60;;;;;;;8.12;91.63;98204.88;106759;1256;69952;-79
2023/01/12 11:22:07;;;;;;;4.50;2.50;;;;;;;8.14;92.02;98204.40;106765;1257;72649;-79
2023/01/12 11:24:41;;;;;;;6.80;3.80;;;;;;;8.15;89.49;98202.95;106781;1254;61291;-80
2023/01/12 11:27:18;;;;;;;6.70;2.50;;;;;;;8.14;88.97;98201.64;106808;1254;60332;-77
2023/01/12 11:29:53;;;;;;;9.60;3.70;;;;;;;8.11;88.26;98196.98;106762;1252;73681;-77
2023/01/12 11:32:32;;;;;;;4.10;1.80;;;;;;;8.08;88.47;98194.47;106778;1255;70903;-80
2023/01/12 11:35:30;;;;;;;6.70;2.70;;;;;;;8.07;88.56;98194.14;106600;1257;71554;-77
2023/01/12 11:37:59;;;;;;;9.60;2.80;;;;;;;8.08;88.07;98196.36;106771;1254;59740;-80
2023/01/12 11:40:32;;;;;;;5.00;2.10;;;;;;;8.12;88.45;98194.66;106726;1255;60924;-77
2023/01/12 11:46:23;;;;;;;6.30;2.20;;;;;;;8.19;88.13;98189.58;106701;1254;71062;-77
2023/01/12 11:48:56;;;;;;;8.80;3.20;;;;;;;8.16;88.51;98186.86;106539;1255;70649;-77
2023/01/12 11:51:22;;;;;;;11.00;3.90;;;;;;;8.14;88.37;98184.16;106740;1254;61270;-80
2023/01/12 11:53:49;;;;;;;7.60;2.10;;;;;;;8.14;88.93;98188.42;106643;1251;60746;-77
2023/01/12 11:56:24;;;;;;;12.10;4.00;;;;;;;8.12;88.21;98186.84;106669;1254;59851;-79
2023/01/12 11:59:10;;;;;;;27.10;6.50;;;;;;;8.08;88.12;98190.26;106891;1256;71463;-80
2023/01/12 12:02:04;;;;;;;7.50;2.70;;;;;;;8.05;88.26;98184.90;106853;1252;72402;-77
2023/01/12 12:04:40;;;;;;;5.80;2.10;;;;;;;8.00;87.61;98181.19;106858;1252;59902;-80
2023/01/12 12:07:22;;;;;;;3.90;2.10;;;;;;;7.98;88.31;98178.20;106830;1253;60891;-77
2023/01/12 12:10:12;;;;;;;5.40;2.80;;;;;;;8.00;87.67;98176.23;106814;1256;74680;-79
2023/01/12 12:12:45;;;;;;;6.70;1.90;;;;;;;8.02;85.55;98172.39;106818;1254;69832;-80